Songa Opal — V7RO5 — position and weather

sailwx.info

Track history (hours):
 
Tides and Currents Weather Stations Pressure Air Temp Water Temp Dewpoint Dewpoint Depression Visibility Wind Speed Wind Dir Waves Ship Positions

Songa Opal

Last reported at 2014-Jul-21 23:33 UTC. Time now 2014-Jul-23 03:48 UTC.
Position N 17°52' W 063°23'.

Length 144 m; draft 8.7 m.

Type: Ship (hazmat cat B). MMSI: 538003550.

Date/timePositionNaut miles runAvg speedWind from/ knotsBaromVisibWave heightAir tempDewpointWater temp
2014-Jul-21 23:33N 17°52' W 063°23'1212.1
2014-Jul-21 22:33N 17°54' W 063°35'1312.4
2014-Jul-21 21:31N 17°57' W 063°48'  
2014-Jul-16 10:29N 29°55' W 090°07'29 9.8
2014-Jul-16 07:28N 30°03' W 090°40'9 8.8
2014-Jul-16 06:27N 30°03' W 090°50'8 8.9
2014-Jul-16 05:32N 30°07' W 090°59'9 8.3
2014-Jul-16 04:29N 30°13' W 091°06'9 0.3
2014-Jul-14 23:20N 30°08' W 090°56'4 0.2
2014-Jul-14 06:04N 30°05' W 090°54'3 0.1
2014-Jul-13 03:30N 30°08' W 090°55'10 9.1
2014-Jul-13 02:25N 30°13' W 091°05'  
Track history (hours):
 
Tides and Currents Weather Stations Pressure Air Temp Water Temp Dewpoint Dewpoint Depression Visibility Wind Speed Wind Dir Waves Ship Positions

Songa Opal

Last reported at 2014-Jul-21 23:33 UTC. Time now 2014-Jul-23 03:48 UTC.
Position N 17°52' W 063°23'.

Length 144 m; draft 8.7 m.

Type: Ship (hazmat cat B). MMSI: 538003550.

Date/timePositionNaut miles runAvg speedWind from/ knotsBaromVisibWave heightAir tempDewpointWater temp
2014-Jul-21 23:33N 17°52' W 063°23'1212.1
2014-Jul-21 22:33N 17°54' W 063°35'1312.4
2014-Jul-21 21:31N 17°57' W 063°48'  
2014-Jul-16 10:29N 29°55' W 090°07'29 9.8
2014-Jul-16 07:28N 30°03' W 090°40'9 8.8
2014-Jul-16 06:27N 30°03' W 090°50'8 8.9
2014-Jul-16 05:32N 30°07' W 090°59'9 8.3
2014-Jul-16 04:29N 30°13' W 091°06'9 0.3
2014-Jul-14 23:20N 30°08' W 090°56'4 0.2
2014-Jul-14 06:04N 30°05' W 090°54'3 0.1
2014-Jul-13 03:30N 30°08' W 090°55'10 9.1
2014-Jul-13 02:25N 30°13' W 091°05'  

Dump ship's entire track history